Time;durP1;ratioP1;P1;durP2;ratioP2;P2;SDS_P1;SDS_P2;PMS_P1;PMS_P2;Temp;Humidity;BMP_temperature;BMP_pressure;BME280_temperature;BME280_humidity;BME280_pressure;Samples;Min_cycle;Max_cycle;Signal;HPM_P1;HPM_P2
2021/10/15 00:02:03;;;;;;;127.07;71.53;;;103.20;2227.20;;;;;;4860036;29;20048;-85
2021/10/15 00:04:36;;;;;;;115.15;63.65;;;103.20;2227.20;;;;;;4799615;29;20038;-85
2021/10/15 00:07:05;;;;;;;117.10;66.93;;;103.20;2227.20;;;;;;4857852;29;20083;-85
2021/10/15 00:09:38;;;;;;;111.35;63.58;;;103.20;2227.20;;;;;;4826069;29;20039;-85
2021/10/15 00:12:08;;;;;;;122.50;68.93;;;103.20;2227.20;;;;;;4843129;29;20045;-85
2021/10/15 00:14:47;;;;;;;129.02;68.28;;;103.20;2227.20;;;;;;4842536;29;20034;-86
2021/10/15 00:17:18;;;;;;;126.15;69.25;;;103.20;2227.20;;;;;;4839347;29;20534;-85
2021/10/15 00:19:46;;;;;;;110.40;58.88;;;103.20;2227.20;;;;;;4846542;29;20036;-85
2021/10/15 00:22:26;;;;;;;93.25;53.28;;;103.20;2227.20;;;;;;4861836;29;20038;-85
2021/10/15 00:25:03;;;;;;;106.22;58.28;;;103.20;2227.20;;;;;;4874831;29;20074;-85
2021/10/15 00:28:09;;;;;;;97.33;54.87;;;103.20;2227.20;;;;;;4859730;29;20034;-85
2021/10/15 00:30:39;;;;;;;92.43;53.97;;;103.10;2227.20;;;;;;4861171;29;20038;-85
2021/10/15 00:33:06;;;;;;;103.32;59.90;;;103.20;2227.20;;;;;;4859857;29;20534;-85
2021/10/15 00:35:39;;;;;;;102.95;58.70;;;103.20;2227.20;;;;;;4845078;29;20038;-85
2021/10/15 00:38:10;;;;;;;101.03;57.58;;;103.20;2227.20;;;;;;4846466;29;20057;-85
2021/10/15 00:40:39;;;;;;;99.95;57.63;;;103.10;2227.20;;;;;;4846755;29;20038;-86
2021/10/15 00:43:09;;;;;;;96.03;55.08;;;103.10;2227.20;;;;;;4860520;29;20018;-86
2021/10/15 00:45:57;;;;;;;96.18;55.30;;;103.10;2227.20;;;;;;4862211;29;20034;-85
2021/10/15 00:48:32;;;;;;;87.25;49.67;;;103.00;2227.20;;;;;;4860958;29;20034;-85
2021/10/15 00:51:19;;;;;;;92.80;53.50;;;103.00;2227.20;;;;;;4863611;29;20030;-85
2021/10/15 00:53:55;;;;;;;92.80;52.03;;;103.00;2227.20;;;;;;4864178;29;20034;-84
2021/10/15 00:56:42;;;;;;;93.05;53.05;;;103.00;2227.20;;;;;;4848486;29;20109;-85
2021/10/15 00:59:09;;;;;;;96.70;53.92;;;103.00;2227.20;;;;;;4867984;29;20057;-85
2021/10/15 01:01:43;;;;;;;92.93;50.72;;;103.00;2227.20;;;;;;4832691;29;20046;-85
2021/10/15 01:04:15;;;;;;;96.45;51.53;;;102.90;2227.20;;;;;;4849492;29;20110;-85
2021/10/15 01:06:49;;;;;;;86.57;46.20;;;103.00;2227.20;;;;;;4864398;29;20038;-85
2021/10/15 01:09:25;;;;;;;77.20;41.22;;;103.00;2227.20;;;;;;4864327;29;20038;-85
2021/10/15 01:12:00;;;;;;;74.87;41.97;;;102.90;2227.20;;;;;;4863685;29;20049;-85
2021/10/15 01:14:29;;;;;;;73.93;39.60;;;103.00;2227.20;;;;;;4863193;29;20038;-85
2021/10/15 01:17:05;;;;;;;78.05;39.33;;;103.00;2227.20;;;;;;4863780;29;20042;-85
2021/10/15 01:19:36;;;;;;;68.82;37.13;;;103.00;2227.20;;;;;;4864120;29;20065;-85
2021/10/15 01:22:08;;;;;;;62.17;36.45;;;103.10;2227.20;;;;;;4861911;29;20042;-85
2021/10/15 01:24:43;;;;;;;60.50;35.58;;;103.10;2227.20;;;;;;4863572;29;20037;-85
2021/10/15 01:27:31;;;;;;;54.53;33.97;;;103.10;2227.20;;;;;;4863269;29;20030;-85
2021/10/15 01:30:16;;;;;;;55.25;31.90;;;103.00;2227.20;;;;;;4862530;29;20038;-85
2021/10/15 01:32:45;;;;;;;56.40;33.73;;;103.00;2227.20;;;;;;4817609;29;20048;-85
2021/10/15 01:35:44;;;;;;;59.33;34.60;;;103.00;2227.20;;;;;;4863366;29;20030;-86
2021/10/15 01:41:12;;;;;;;56.90;33.17;;;103.00;2227.20;;;;;;4862807;29;20037;-85
2021/10/15 01:43:40;;;;;;;59.20;34.30;;;103.10;2227.20;;;;;;4862663;29;20038;-85
2021/10/15 01:46:19;;;;;;;56.78;33.45;;;103.00;2227.20;;;;;;4863846;29;20026;-85
2021/10/15 01:49:24;;;;;;;55.70;33.47;;;103.00;2227.20;;;;;;4863544;29;20045;-85
2021/10/15 01:51:55;;;;;;;65.40;37.58;;;103.00;2227.20;;;;;;4860767;29;20041;-85
2021/10/15 01:54:40;;;;;;;78.88;48.05;;;102.90;2227.20;;;;;;4863219;29;20026;-85
2021/10/15 01:57:32;;;;;;;92.23;54.87;;;102.90;2227.20;;;;;;4862894;29;20061;-85
2021/10/15 02:00:27;;;;;;;70.93;42.57;;;102.90;2227.20;;;;;;4848662;29;20025;-85
2021/10/15 02:02:54;;;;;;;61.50;37.17;;;102.90;2227.20;;;;;;4863317;29;20038;-85
2021/10/15 02:05:37;;;;;;;56.27;34.27;;;102.90;2227.20;;;;;;4863746;29;20498;-86
2021/10/15 02:08:12;;;;;;;63.53;38.70;;;102.90;2227.20;;;;;;4860619;29;20030;-87
2021/10/15 02:10:40;;;;;;;72.20;41.20;;;128.30;2252.80;;;;;;4832684;29;20042;-84
2021/10/15 02:13:54;;;;;;;63.53;38.57;;;102.70;2227.20;;;;;;4864281;29;20035;-88
2021/10/15 02:17:03;;;;;;;63.67;36.42;;;102.80;2227.20;;;;;;4808416;30;20039;-85
2021/10/15 02:19:39;;;;;;;58.53;35.87;;;102.80;2227.20;;;;;;4793351;30;20036;-85
2021/10/15 02:22:08;;;;;;;61.53;36.57;;;102.80;2227.20;;;;;;4792513;30;20070;-85
2021/10/15 02:24:36;;;;;;;64.40;35.90;;;102.80;2227.20;;;;;;4797315;30;20044;-84
2021/10/15 02:27:46;;;;;;;69.73;40.37;;;102.80;2227.20;;;;;;4791085;30;20027;-85
2021/10/15 02:30:19;;;;;;;79.60;42.63;;;102.70;2227.20;;;;;;4791251;30;20063;-85
2021/10/15 02:32:57;;;;;;;63.60;36.22;;;102.80;2227.20;;;;;;4794956;30;20032;-85
2021/10/15 02:35:51;;;;;;;59.67;35.60;;;102.70;2227.20;;;;;;4788816;30;20038;-85
2021/10/15 02:38:35;;;;;;;62.00;35.35;;;102.70;2227.20;;;;;;4789635;30;20058;-85
2021/10/15 02:41:06;;;;;;;;;;;102.70;2227.20;;;;;;4796821;30;20032;-85
2021/10/15 02:43:36;;;;;;;69.10;36.72;;;102.80;2227.20;;;;;;4796961;29;19913;-85
2021/10/15 02:46:26;;;;;;;60.57;35.10;;;102.70;2227.20;;;;;;4799168;30;20173;-85
2021/10/15 02:48:55;;;;;;;62.40;35.20;;;102.70;2227.20;;;;;;4805291;30;20043;-85
2021/10/15 02:51:29;;;;;;;61.95;37.40;;;102.60;2227.20;;;;;;4804643;30;20035;-85
2021/10/15 02:54:02;;;;;;;63.33;36.65;;;102.90;2227.20;;;;;;4809140;29;20031;-84
2021/10/15 02:56:34;;;;;;;65.40;39.17;;;102.50;2227.20;;;;;;4749435;29;20043;-85
2021/10/15 02:59:10;;;;;;;72.27;40.87;;;102.50;2227.20;;;;;;4820120;29;20062;-85
2021/10/15 03:01:40;;;;;;;70.43;39.40;;;102.60;2227.20;;;;;;4834948;29;20043;-84
2021/10/15 03:04:08;;;;;;;68.37;40.10;;;77.70;2227.20;;;;;;4809512;29;20095;-85
2021/10/15 03:07:03;;;;;;;71.43;39.47;;;102.50;2227.20;;;;;;4824576;29;20068;-85
2021/10/15 03:09:48;;;;;;;79.03;41.22;;;102.50;2227.20;;;;;;4879130;29;20037;-85
2021/10/15 03:12:26;;;;;;;77.37;43.00;;;102.50;2227.20;;;;;;4858739;29;20029;-85
2021/10/15 03:14:58;;;;;;;78.50;42.70;;;102.50;2227.20;;;;;;4858431;29;20038;-85
2021/10/15 03:17:51;;;;;;;76.20;45.50;;;102.50;2227.20;;;;;;4864793;29;20037;-85
2021/10/15 03:20:18;;;;;;;75.03;43.80;;;102.50;2227.20;;;;;;4864697;29;20026;-85
2021/10/15 03:23:01;;;;;;;79.87;43.13;;;102.40;2227.20;;;;;;4849223;29;20033;-85
2021/10/15 03:25:37;;;;;;;79.40;45.93;;;102.50;2227.20;;;;;;4879476;29;20100;-85
2021/10/15 03:28:35;;;;;;;82.00;45.10;;;102.50;2227.20;;;;;;4877172;29;20040;-85
2021/10/15 03:31:12;;;;;;;77.20;43.90;;;102.50;2227.20;;;;;;4879887;29;20046;-85
2021/10/15 03:33:45;;;;;;;74.37;42.73;;;102.40;2227.20;;;;;;4863688;29;20030;-85
2021/10/15 03:36:27;;;;;;;75.97;44.03;;;102.50;2227.20;;;;;;4865144;29;20028;-85
2021/10/15 03:38:59;;;;;;;;;;;102.50;2227.20;;;;;;4881073;29;20037;-85
2021/10/15 03:41:28;;;;;;;69.17;40.60;;;102.50;2227.20;;;;;;4880314;29;20357;-86
2021/10/15 03:43:55;;;;;;;65.30;38.10;;;102.50;2227.20;;;;;;4865310;29;20030;-85
2021/10/15 03:46:27;;;;;;;79.33;43.43;;;102.50;2227.20;;;;;;4865345;29;20017;-86
2021/10/15 03:49:08;;;;;;;85.60;44.70;;;102.40;2227.20;;;;;;4881368;29;20021;-85
2021/10/15 03:52:05;;;;;;;90.37;49.60;;;102.40;2227.20;;;;;;4880752;29;20082;-85
2021/10/15 03:54:57;;;;;;;74.23;43.37;;;102.50;2227.20;;;;;;4880072;29;20038;-85
2021/10/15 03:57:49;;;;;;;74.37;41.07;;;102.40;2227.20;;;;;;4878646;29;20045;-85
2021/10/15 04:04:00;;;;;;;64.97;40.17;;;102.40;2227.20;;;;;;4843794;29;20058;-86
2021/10/15 04:06:41;;;;;;;65.32;40.05;;;102.40;2227.20;;;;;;4844299;29;20034;-85
2021/10/15 04:09:30;;;;;;;63.13;39.17;;;102.40;2227.20;;;;;;4844403;29;20042;-86
2021/10/15 04:12:14;;;;;;;64.50;38.93;;;102.40;2227.20;;;;;;4842997;29;20087;-85
2021/10/15 04:14:45;;;;;;;59.33;36.53;;;102.40;2227.20;;;;;;4842201;29;20062;-85
2021/10/15 04:17:22;;;;;;;66.47;39.80;;;102.40;2227.20;;;;;;4842856;29;20042;-85
2021/10/15 04:20:10;;;;;;;65.72;39.95;;;102.40;2227.20;;;;;;4827681;29;20039;-85
2021/10/15 04:22:48;;;;;;;67.97;37.92;;;102.70;2227.20;;;;;;4844418;29;20038;-85
2021/10/15 04:25:26;;;;;;;63.80;38.80;;;102.40;2227.20;;;;;;4842362;29;20093;-85
2021/10/15 04:27:54;;;;;;;71.37;40.70;;;102.40;2227.20;;;;;;4842233;29;20038;-85
2021/10/15 04:30:22;;;;;;;65.77;38.50;;;102.40;2227.20;;;;;;4827747;29;20030;-85
2021/10/15 04:33:35;;;;;;;67.53;39.20;;;77.70;2227.20;;;;;;4843927;29;20086;-85
2021/10/15 04:36:28;;;;;;;60.03;35.93;;;77.70;2227.20;;;;;;4843760;29;20030;-85
2021/10/15 04:38:54;;;;;;;62.65;37.20;;;77.70;2227.20;;;;;;4843157;29;20499;-85
2021/10/15 04:41:34;;;;;;;59.97;35.20;;;77.70;2227.20;;;;;;4843479;29;20038;-85
2021/10/15 04:44:02;;;;;;;68.60;37.20;;;77.70;2227.20;;;;;;4796927;29;20572;-85
2021/10/15 04:46:36;;;;;;;61.53;36.33;;;77.50;2227.20;;;;;;4842040;29;20042;-85
2021/10/15 04:49:03;;;;;;;65.13;37.17;;;77.70;2227.20;;;;;;4843392;29;20090;-85
2021/10/15 04:51:49;;;;;;;72.00;39.43;;;77.70;2227.20;;;;;;4828244;29;20047;-85
2021/10/15 04:54:21;;;;;;;70.87;39.07;;;77.70;2227.20;;;;;;4825778;29;20034;-85
2021/10/15 04:57:13;;;;;;;87.53;42.57;;;77.70;2227.20;;;;;;4841895;29;20052;-85
2021/10/15 04:59:51;;;;;;;90.57;43.97;;;77.70;2227.20;;;;;;4845421;29;20057;-85
2021/10/15 05:02:17;;;;;;;86.03;43.30;;;77.70;2227.20;;;;;;4863175;29;20097;-85
2021/10/15 05:04:57;;;;;;;84.93;41.17;;;77.70;2227.20;;;;;;4863792;29;20048;-85
2021/10/15 05:07:26;;;;;;;70.27;38.23;;;77.70;2227.20;;;;;;4861455;29;20030;-85
2021/10/15 05:10:22;;;;;;;65.77;36.83;;;77.60;2227.20;;;;;;4871893;29;20033;-85
2021/10/15 05:12:51;;;;;;;63.93;37.63;;;77.60;2227.20;;;;;;4863499;29;20033;-85
2021/10/15 05:15:20;;;;;;;64.70;37.27;;;77.70;2227.20;;;;;;4863293;29;20038;-85
2021/10/15 05:18:01;;;;;;;82.73;44.77;;;77.70;2227.20;;;;;;4879245;29;20041;-85
2021/10/15 05:20:32;;;;;;;89.18;51.60;;;77.70;2227.20;;;;;;4879978;29;20034;-85
2021/10/15 05:23:00;;;;;;;102.07;55.77;;;102.40;2227.20;;;;;;4879693;29;20010;-84
2021/10/15 05:25:41;;;;;;;94.93;51.73;;;77.70;2227.20;;;;;;4864311;29;20025;-86
2021/10/15 05:28:40;;;;;;;70.37;40.60;;;77.70;2227.20;;;;;;4877383;29;20054;-85
2021/10/15 05:31:10;;;;;;;69.90;40.70;;;77.70;2227.20;;;;;;4876651;29;20028;-85
2021/10/15 05:33:55;;;;;;;69.63;40.43;;;77.60;2227.20;;;;;;4832961;29;20037;-85
2021/10/15 05:36:25;;;;;;;60.73;37.70;;;77.60;2227.20;;;;;;4861366;29;20049;-85
2021/10/15 05:38:53;;;;;;;58.17;35.33;;;77.70;2227.20;;;;;;4867413;29;20040;-85
2021/10/15 05:41:40;;;;;;;57.17;35.93;;;77.60;2227.20;;;;;;4883752;29;20026;-85
2021/10/15 05:44:42;;;;;;;52.70;33.87;;;77.70;2227.20;;;;;;4882894;29;20061;-85
2021/10/15 05:47:15;;;;;;;58.77;34.57;;;77.70;2227.20;;;;;;4865988;29;20057;-85
2021/10/15 05:49:48;;;;;;;53.10;33.30;;;77.70;2227.20;;;;;;4883487;29;20089;-85
2021/10/15 05:52:43;;;;;;;68.82;38.22;;;102.40;2227.20;;;;;;4883384;29;20030;-85
2021/10/15 05:55:55;;;;;;;70.73;41.70;;;102.40;2227.20;;;;;;4867079;29;20062;-85
2021/10/15 05:58:52;;;;;;;70.47;42.20;;;102.40;2227.20;;;;;;4807981;30;20057;-85
2021/10/15 06:01:33;;;;;;;73.53;42.73;;;102.40;2227.20;;;;;;4785074;30;20189;-85
2021/10/15 06:05:02;;;;;;;86.80;49.43;;;77.70;2227.20;;;;;;4793271;30;20099;-85
2021/10/15 06:16:47;;;;;;;110.03;62.10;;;102.50;2227.20;;;;;;4808417;30;20099;-86
2021/10/15 06:19:24;;;;;;;98.87;56.40;;;102.60;2227.20;;;;;;4807645;30;20047;-85
2021/10/15 06:21:52;;;;;;;97.27;54.93;;;102.70;2227.20;;;;;;4807264;30;20044;-85
2021/10/15 06:24:19;;;;;;;103.80;59.17;;;102.80;2227.20;;;;;;4807454;29;20043;-85
2021/10/15 06:26:53;;;;;;;108.60;59.77;;;102.60;2227.20;;;;;;4807211;30;20123;-85
2021/10/15 06:29:41;;;;;;;90.83;54.27;;;102.90;2227.20;;;;;;4806939;30;20508;-85
2021/10/15 06:32:08;;;;;;;91.73;51.23;;;103.00;2227.20;;;;;;4822327;29;20043;-85
2021/10/15 06:34:41;;;;;;;94.47;54.40;;;103.10;2227.20;;;;;;4853204;29;20109;-85
2021/10/15 06:37:47;;;;;;;89.37;53.67;;;103.30;2227.20;;;;;;4861222;29;20100;-84
2021/10/15 06:40:23;;;;;;;84.23;50.67;;;103.30;2227.20;;;;;;4849852;29;20045;-85
2021/10/15 06:42:56;;;;;;;67.95;38.55;;;102.80;2227.20;;;;;;4845643;29;20204;-85
2021/10/15 06:45:43;;;;;;;65.53;37.73;;;128.20;2252.80;;;;;;4849464;29;20010;-85
2021/10/15 06:48:10;;;;;;;85.80;46.00;;;128.40;2252.80;;;;;;4883673;29;20033;-85
2021/10/15 06:50:37;;;;;;;67.85;41.90;;;128.40;2252.80;;;;;;4881955;29;20031;-85
2021/10/15 06:53:13;;;;;;;72.75;48.60;;;128.10;2252.80;;;;;;4899375;29;20029;-85
2021/10/15 06:55:43;;;;;;;105.28;58.28;;;128.60;2252.80;;;;;;4900096;29;20025;-85
2021/10/15 06:58:17;;;;;;;80.45;48.88;;;153.80;2252.80;;;;;;4898664;29;20045;-85
2021/10/15 07:00:45;;;;;;;83.07;48.83;;;128.90;2252.80;;;;;;4869811;29;20057;-85
2021/10/15 07:03:28;;;;;;;89.80;51.20;;;153.70;2252.80;;;;;;4861275;29;20045;-85
2021/10/15 07:06:30;;;;;;;79.82;47.10;;;153.60;2252.80;;;;;;4861759;29;20042;-85
2021/10/15 07:09:10;;;;;;;81.03;49.22;;;153.80;2252.80;;;;;;4865679;29;20015;-85
2021/10/15 07:11:51;;;;;;;87.70;47.30;;;153.90;2252.80;;;;;;4864889;29;20081;-85
2021/10/15 08:10:28;;;;;;;28.98;18.70;;;282.00;2201.60;;;;;;645015;23;20330;-86
2021/10/15 08:12:57;;;;;;;23.95;17.90;;;307.20;2124.80;;;;;;4898842;29;20048;-88
2021/10/15 08:15:24;;;;;;;25.60;16.05;;;333.30;2022.40;;;;;;4882931;29;20029;-87
2021/10/15 08:17:50;;;;;;;25.05;20.02;;;410.10;1689.60;;;;;;4882652;29;20079;-85
2021/10/15 08:20:19;;;;;;;27.85;22.17;;;461.30;1510.40;;;;;;4883934;29;20048;-85
2021/10/15 08:22:46;;;;;;;37.90;31.85;;;512.30;1305.60;;;;;;4899235;29;20024;-83
2021/10/15 08:25:12;;;;;;;39.75;32.83;;;538.40;1177.60;;;;;;4882032;29;20565;-84
2021/10/15 08:27:37;;;;;;;28.10;23.98;;;563.90;1100.80;;;;;;4898715;29;20021;-84
2021/10/15 08:30:06;;;;;;;33.42;26.63;;;589.60;1024.00;;;;;;4882400;29;20060;-83
2021/10/15 08:32:32;;;;;;;30.42;23.05;;;614.60;1024.00;;;;;;4898727;29;20024;-83
2021/10/15 08:34:57;;;;;;;24.05;20.00;;;640.20;947.20;;;;;;4898394;29;20619;-83
2021/10/15 08:37:23;;;;;;;20.05;16.10;;;640.20;947.20;;;;;;4881917;29;20112;-83
2021/10/15 08:39:49;;;;;;;17.52;15.68;;;640.40;896.00;;;;;;4898544;29;20031;-83
2021/10/15 08:42:15;;;;;;;15.93;14.13;;;665.60;921.60;;;;;;4881769;29;20032;-83
2021/10/15 08:44:47;;;;;;;17.70;14.77;;;666.00;896.00;;;;;;4881813;29;20028;-84
2021/10/15 08:47:18;;;;;;;19.98;15.65;;;691.20;870.40;;;;;;4898385;29;20021;-84
2021/10/15 08:49:45;;;;;;;15.23;13.73;;;691.40;844.80;;;;;;4898520;29;20037;-83
2021/10/15 08:52:12;;;;;;;14.77;12.25;;;717.10;819.20;;;;;;4881694;29;20028;-84
2021/10/15 08:54:43;;;;;;;16.20;13.40;;;666.10;844.80;;;;;;4881632;29;20087;-83
2021/10/15 08:57:10;;;;;;;14.23;12.73;;;614.40;921.60;;;;;;4881656;29;20406;-84
2021/10/15 08:59:50;;;;;;;16.90;14.10;;;589.10;998.40;;;;;;4898435;29;20031;-83
2021/10/15 09:02:22;;;;;;;23.73;16.63;;;538.00;1075.20;;;;;;4880004;29;20067;-89
2021/10/15 09:04:58;;;;;;;22.52;15.63;;;512.40;1126.40;;;;;;4879926;29;20039;-80
2021/10/15 09:07:26;;;;;;;29.77;21.17;;;538.20;1126.40;;;;;;4897153;29;20025;-80
2021/10/15 09:10:12;;;;;;;18.60;15.20;;;614.50;972.80;;;;;;4877528;29;20457;-80
2021/10/15 09:13:07;;;;;;;16.00;13.90;;;691.50;844.80;;;;;;4881289;29;20113;-80
2021/10/15 09:15:34;;;;;;;54.03;31.95;;;691.50;819.20;;;;;;4883301;29;20134;-81
2021/10/15 09:18:11;;;;;;;28.80;20.88;;;640.40;870.40;;;;;;4883423;29;20028;-80
2021/10/15 09:20:37;;;;;;;21.13;17.65;;;666.00;870.40;;;;;;4898213;29;20028;-80
2021/10/15 09:23:03;;;;;;;15.25;13.65;;;717.00;844.80;;;;;;4883391;29;20493;-80
2021/10/15 09:25:38;;;;;;;26.73;17.77;;;743.10;793.60;;;;;;4900143;29;20127;-80
2021/10/15 09:28:18;;;;;;;19.15;14.32;;;717.20;793.60;;;;;;4900178;29;20076;-80
2021/10/15 09:30:47;;;;;;;20.85;17.90;;;743.30;793.60;;;;;;4882152;29;20020;-81
2021/10/15 09:33:13;;;;;;;20.45;18.25;;;768.50;742.40;;;;;;4900046;29;20021;-78
2021/10/15 09:35:39;;;;;;;17.85;14.75;;;768.50;742.40;;;;;;4883655;29;20115;-79
2021/10/15 09:38:08;;;;;;;18.35;16.40;;;793.60;716.80;;;;;;4882878;29;20028;-78
2021/10/15 09:40:45;;;;;;;17.67;15.75;;;794.00;742.40;;;;;;4900202;29;20459;-78
2021/10/15 09:43:13;;;;;;;16.92;14.68;;;794.00;742.40;;;;;;4882892;29;20356;-78
2021/10/15 09:45:43;;;;;;;19.23;15.57;;;819.80;665.60;;;;;;4899549;29;20040;-79
2021/10/15 09:48:35;;;;;;;20.73;16.70;;;793.70;716.80;;;;;;4882660;29;20494;-78
2021/10/15 09:51:22;;;;;;;24.70;18.13;;;666.10;793.60;;;;;;4881134;29;20356;-77
2021/10/15 09:54:10;;;;;;;19.38;17.30;;;665.60;870.40;;;;;;4898853;29;20024;-78
2021/10/15 09:57:02;;;;;;;23.00;16.83;;;614.50;921.60;;;;;;4897420;29;20020;-78
2021/10/15 09:59:43;;;;;;;27.83;21.02;;;563.40;1049.60;;;;;;4894724;29;20413;-78
2021/10/15 10:02:09;;;;;;;36.97;25.50;;;537.60;1126.40;;;;;;4898803;29;20047;-78
2021/10/15 10:04:35;;;;;;;40.47;26.50;;;487.30;1152.00;;;;;;4882739;29;20474;-78
2021/10/15 10:07:01;;;;;;;36.65;25.02;;;486.50;1254.40;;;;;;4899367;29;20039;-78
2021/10/15 10:09:27;;;;;;;44.75;28.38;;;461.50;1305.60;;;;;;4882572;29;20078;-78
2021/10/15 10:11:54;;;;;;;52.30;32.78;;;461.20;1331.20;;;;;;4882269;29;20048;-78
2021/10/15 10:14:19;;;;;;;44.55;28.80;;;436.00;1331.20;;;;;;4882363;29;20474;-78
2021/10/15 10:16:47;;;;;;;62.88;36.70;;;435.80;1356.80;;;;;;4882867;29;20035;-77
2021/10/15 10:19:14;;;;;;;76.55;45.78;;;435.50;1382.40;;;;;;4882875;29;20047;-78
2021/10/15 10:21:40;;;;;;;41.22;27.88;;;435.30;1382.40;;;;;;4899093;29;20033;-78
2021/10/15 10:24:12;;;;;;;45.72;30.13;;;410.20;1433.60;;;;;;4882671;29;20032;-77
2021/10/15 10:26:50;;;;;;;33.83;25.50;;;410.30;1433.60;;;;;;4899790;29;20486;-77
2021/10/15 10:29:17;;;;;;;88.00;55.53;;;409.90;1459.20;;;;;;4882506;29;20037;-78
2021/10/15 10:31:43;;;;;;;144.98;78.13;;;409.80;1510.40;;;;;;4882779;29;20028;-78
2021/10/15 10:34:29;;;;;;;149.68;78.30;;;409.70;1484.80;;;;;;4882644;29;20367;-78
2021/10/15 10:37:06;;;;;;;26.92;22.10;;;384.90;1510.40;;;;;;4882376;29;20490;-77
2021/10/15 10:39:32;;;;;;;39.08;24.92;;;384.80;1510.40;;;;;;4882666;29;20024;-78
2021/10/15 10:42:03;;;;;;;50.10;30.42;;;384.60;1536.00;;;;;;4899283;29;20032;-77
2021/10/15 10:44:31;;;;;;;33.38;20.95;;;384.40;1536.00;;;;;;4882539;29;20176;-78
2021/10/15 10:47:18;;;;;;;369.75;241.00;;;384.40;1561.60;;;;;;4882312;29;20029;-78
2021/10/15 10:50:09;;;;;;;439.75;283.00;;;384.20;1587.20;;;;;;4882402;29;20040;-78
2021/10/15 10:52:39;;;;;;;809.65;541.63;;;384.00;1587.20;;;;;;4886186;29;20032;-78
2021/10/15 10:55:05;;;;;;;545.00;324.63;;;384.00;1587.20;;;;;;4898935;29;20043;-77
2021/10/15 10:57:38;;;;;;;1179.90;719.35;;;384.00;1587.20;;;;;;4899090;29;20108;-77
2021/10/15 11:00:20;;;;;;;584.78;345.52;;;384.20;1561.60;;;;;;4882362;29;20432;-77
2021/10/15 11:02:52;;;;;;;1084.53;640.00;;;384.10;1587.20;;;;;;4882231;29;20079;-81
2021/10/15 11:05:33;;;;;;;593.55;330.48;;;384.00;1612.80;;;;;;4882601;29;20025;-85
2021/10/15 11:08:23;;;;;;;597.90;304.17;;;384.10;1587.20;;;;;;4883206;29;20067;-93
2021/10/15 11:11:13;;;;;;;446.45;198.85;;;384.00;1612.80;;;;;;4900082;29;20046;-93
2021/10/15 11:13:39;;;;;;;327.30;135.02;;;359.30;1612.80;;;;;;4880981;29;20085;-86
2021/10/15 11:16:19;;;;;;;441.55;172.15;;;359.10;1612.80;;;;;;4883217;29;20029;-86
2021/10/15 11:18:45;;;;;;;415.13;153.63;;;359.00;1612.80;;;;;;4883095;29;20505;-86
2021/10/15 11:21:12;;;;;;;241.90;102.70;;;359.00;1612.80;;;;;;4899573;29;20039;-92
2021/10/15 11:23:39;;;;;;;334.15;166.63;;;358.90;1638.40;;;;;;4889012;29;20044;-92
2021/10/15 11:26:06;;;;;;;432.00;199.30;;;358.80;1638.40;;;;;;4900321;29;20043;-86
2021/10/15 11:28:32;;;;;;;408.52;216.43;;;358.60;1638.40;;;;;;4900454;29;20123;-86
2021/10/15 11:30:59;;;;;;;213.20;114.40;;;358.50;1689.60;;;;;;4907073;29;20025;-93
2021/10/15 11:33:26;;;;;;;267.33;140.60;;;358.50;1664.00;;;;;;4887643;29;20490;-86
2021/10/15 11:35:54;;;;;;;224.40;125.03;;;358.40;1689.60;;;;;;4882870;29;20033;-95
2021/10/15 11:38:28;;;;;;;124.63;72.28;;;358.40;1715.20;;;;;;4882970;29;20446;-86
2021/10/15 11:40:57;;;;;;;48.90;30.10;;;358.40;1689.60;;;;;;4883190;29;20029;-86
2021/10/15 11:43:25;;;;;;;51.67;31.40;;;333.70;1689.60;;;;;;4882870;29;20111;-86
2021/10/15 11:46:01;;;;;;;20.83;13.80;;;333.70;1689.60;;;;;;4882707;29;20033;-85
2021/10/15 11:48:40;;;;;;;14.98;10.32;;;333.60;1740.80;;;;;;4883036;29;20044;-85
2021/10/15 11:51:12;;;;;;;13.70;10.07;;;333.50;1715.20;;;;;;4883077;29;20029;-85
2021/10/15 11:53:47;;;;;;;14.93;11.05;;;333.50;1715.20;;;;;;4882981;29;20043;-86
2021/10/15 11:56:15;;;;;;;16.70;10.02;;;333.40;1715.20;;;;;;4899483;29;20025;-85
2021/10/15 11:58:46;;;;;;;13.48;10.00;;;333.40;1740.80;;;;;;4882697;29;20025;-86
2021/10/15 12:01:22;;;;;;;13.52;8.82;;;333.40;1740.80;;;;;;4882920;29;20029;-86
2021/10/15 12:03:52;;;;;;;13.77;10.15;;;333.40;1740.80;;;;;;4882803;29;20502;-86
2021/10/15 12:06:29;;;;;;;14.02;9.30;;;333.40;1766.40;;;;;;4882864;29;20028;-87
2021/10/15 12:09:11;;;;;;;14.68;8.70;;;333.40;1766.40;;;;;;4883170;29;20142;-86
2021/10/15 12:11:38;;;;;;;12.38;9.30;;;333.40;1740.80;;;;;;4899152;29;20045;-86
2021/10/15 12:14:07;;;;;;;12.05;9.63;;;333.40;1740.80;;;;;;4882756;29;20029;-86
2021/10/15 12:16:42;;;;;;;21.55;12.95;;;333.50;1715.20;;;;;;4882485;29;20025;-86
2021/10/15 12:19:20;;;;;;;24.23;15.70;;;333.50;1740.80;;;;;;4899227;29;20056;-86
2021/10/15 12:22:08;;;;;;;19.40;13.55;;;333.60;1740.80;;;;;;4882385;29;20032;-86
2021/10/15 12:24:37;;;;;;;21.40;13.75;;;333.50;1740.80;;;;;;4881825;29;20040;-86
2021/10/15 12:27:24;;;;;;;14.77;11.20;;;333.50;1766.40;;;;;;4899331;29;20084;-86
2021/10/15 12:30:04;;;;;;;14.93;10.18;;;333.50;1740.80;;;;;;4899103;29;20075;-86
2021/10/15 12:32:40;;;;;;;15.35;10.70;;;333.50;1740.80;;;;;;4882436;29;20486;-86
2021/10/15 12:35:15;;;;;;;22.88;13.43;;;333.50;1740.80;;;;;;4882452;29;20021;-88
2021/10/15 12:37:46;;;;;;;29.38;16.20;;;333.40;1740.80;;;;;;4881421;29;20052;-87
2021/10/15 12:40:17;;;;;;;32.90;21.50;;;333.40;1766.40;;;;;;4898884;29;20056;-87
2021/10/15 12:42:46;;;;;;;27.58;18.67;;;333.40;1766.40;;;;;;4899000;29;20052;-85
2021/10/15 12:45:15;;;;;;;15.45;12.43;;;333.20;1792.00;;;;;;4898653;29;20028;-84
2021/10/15 12:47:52;;;;;;;21.50;14.75;;;333.20;1792.00;;;;;;4902436;29;20070;-85
2021/10/15 12:50:18;;;;;;;21.15;14.75;;;333.20;1792.00;;;;;;4901963;29;20025;-83
2021/10/15 12:52:44;;;;;;;27.50;15.23;;;333.10;1817.60;;;;;;4901779;29;20501;-84
2021/10/15 12:55:22;;;;;;;20.05;13.05;;;333.10;1817.60;;;;;;4901778;29;20028;-87
2021/10/15 12:57:51;;;;;;;16.50;12.98;;;333.10;1792.00;;;;;;4901513;29;20493;-86
2021/10/15 13:00:20;;;;;;;16.40;11.50;;;333.00;1817.60;;;;;;4901823;29;20051;-85
2021/10/15 13:03:04;;;;;;;18.05;12.50;;;333.10;1792.00;;;;;;4902826;29;20475;-85
2021/10/15 13:05:31;;;;;;;15.23;11.32;;;333.10;1792.00;;;;;;4901348;29;20025;-84
2021/10/15 13:07:57;;;;;;;14.98;10.60;;;333.10;1792.00;;;;;;4901020;29;20076;-85
2021/10/15 13:10:25;;;;;;;19.90;11.70;;;333.00;1817.60;;;;;;4901749;29;20025;-86
2021/10/15 13:12:52;;;;;;;22.30;12.95;;;333.10;1792.00;;;;;;4900850;29;20108;-85
2021/10/15 13:15:22;;;;;;;20.73;13.18;;;333.10;1792.00;;;;;;4900228;29;20040;-85
2021/10/15 13:17:50;;;;;;;18.45;13.70;;;333.10;1792.00;;;;;;4902179;29;20079;-85
2021/10/15 13:20:17;;;;;;;20.80;15.10;;;333.10;1792.00;;;;;;4901194;29;20060;-84
2021/10/15 13:22:43;;;;;;;17.67;13.10;;;333.10;1792.00;;;;;;4901088;29;20024;-85
2021/10/15 13:25:09;;;;;;;16.30;12.05;;;333.10;1817.60;;;;;;4902016;29;20497;-85
2021/10/15 13:27:37;;;;;;;14.10;11.32;;;333.00;1817.60;;;;;;4902402;29;20084;-85
2021/10/15 13:30:04;;;;;;;17.42;12.63;;;333.00;1817.60;;;;;;4901997;29;20513;-85
2021/10/15 13:32:30;;;;;;;18.77;12.85;;;333.00;1817.60;;;;;;4902327;29;20024;-85
2021/10/15 13:34:56;;;;;;;17.38;13.20;;;333.00;1817.60;;;;;;4900490;29;20035;-84
2021/10/15 13:37:25;;;;;;;26.48;16.75;;;333.00;1843.20;;;;;;4900767;29;20028;-85
2021/10/15 13:39:56;;;;;;;115.70;57.95;;;333.00;1843.20;;;;;;4900979;29;20491;-84
2021/10/15 13:50:05;;;;;;;72.15;37.60;;;333.00;1868.80;;;;;;4917257;29;20036;-85
2021/10/15 13:52:31;;;;;;;63.00;33.50;;;333.00;1868.80;;;;;;4919783;29;20043;-85
2021/10/15 13:54:57;;;;;;;159.15;58.67;;;332.90;1868.80;;;;;;4915031;29;20036;-81
2021/10/15 13:57:23;;;;;;;114.65;45.20;;;332.90;1894.40;;;;;;4916697;29;20106;-86
2021/10/15 13:59:57;;;;;;;53.65;26.00;;;332.80;1971.20;;;;;;4903739;29;20032;-86